createdAt,value
2023-05-24T00:04:05.673Z,16.57
2023-05-24T00:08:59.088Z,16.29
2023-05-24T00:13:52.395Z,16.35
2023-05-24T00:18:47.219Z,16.48
2023-05-24T00:23:42.118Z,16.49
2023-05-24T00:28:35.923Z,16.49
2023-05-24T00:33:29.787Z,16.46
2023-05-24T00:38:24.623Z,16.45
2023-05-24T00:43:19.186Z,16.63
2023-05-24T00:48:13.477Z,16.42
2023-05-24T00:53:08.172Z,16.32
2023-05-24T00:58:03.474Z,16.36
2023-05-24T01:02:57.178Z,16.23
2023-05-24T01:08:05.278Z,16.06
2023-05-24T01:13:08.455Z,16.10
2023-05-24T01:18:10.101Z,16.27
2023-05-24T01:23:17.773Z,16.33
2023-05-24T01:28:13.941Z,16.17
2023-05-24T01:33:07.762Z,16.21
2023-05-24T01:38:01.156Z,16.27
2023-05-24T01:43:05.618Z,16.37
2023-05-24T01:48:18.762Z,16.13
2023-05-24T01:53:19.125Z,16.21
2023-05-24T01:58:17.016Z,15.88
2023-05-24T02:03:14.615Z,16.18
2023-05-24T02:08:08.968Z,16.18
2023-05-24T02:13:02.307Z,16.36
2023-05-24T02:17:55.732Z,16.26
2023-05-24T02:22:50.592Z,16.18
2023-05-24T02:27:47.125Z,16.14
2023-05-24T02:32:40.962Z,15.81
2023-05-24T02:37:34.377Z,16.03
2023-05-24T02:42:31.297Z,16.10
2023-05-24T02:47:27.187Z,16.06
2023-05-24T02:52:21.857Z,15.83
2023-05-24T02:57:15.540Z,15.66
2023-05-24T03:02:15.897Z,15.74
2023-05-24T03:07:09.327Z,15.83
2023-05-24T03:12:02.631Z,15.96
2023-05-24T03:16:56.202Z,16.21
2023-05-24T03:21:52.349Z,16.21
2023-05-24T03:26:47.692Z,16.30
2023-05-24T03:31:41.158Z,16.06
2023-05-24T03:36:37.632Z,16.07
2023-05-24T03:41:32.498Z,16.16
2023-05-24T03:46:25.794Z,16.29
2023-05-24T03:51:19.223Z,16.17
2023-05-24T03:56:12.515Z,16.06
2023-05-24T04:01:08.142Z,15.80
2023-05-24T04:06:01.579Z,15.90
2023-05-24T04:10:54.983Z,16.05
2023-05-24T04:15:48.320Z,16.23
2023-05-24T04:20:43.172Z,16.21
2023-05-24T04:25:36.553Z,16.08
2023-05-24T04:30:30.398Z,15.87
2023-05-24T04:35:23.948Z,15.68
2023-05-24T04:40:20.767Z,15.62
2023-05-24T04:45:14.270Z,15.46
2023-05-24T04:50:08.775Z,15.26
2023-05-24T04:55:02.127Z,15.45
2023-05-24T04:59:56.822Z,15.19
2023-05-24T05:04:50.163Z,15.38
2023-05-24T05:09:43.498Z,15.32
2023-05-24T05:14:38.264Z,15.12
2023-05-24T05:19:33.045Z,14.91
2023-05-24T05:24:26.587Z,15.13
2023-05-24T05:29:20.922Z,15.28
2023-05-24T05:34:15.516Z,15.35
2023-05-24T05:39:10.637Z,15.34
2023-05-24T05:44:03.950Z,15.09
2023-05-24T05:48:57.470Z,15.18
2023-05-24T05:53:51.000Z,15.14
2023-05-24T05:58:45.715Z,15.38
2023-05-24T06:03:39.231Z,15.04
2023-05-24T06:08:35.223Z,14.78
2023-05-24T06:13:29.105Z,14.99
2023-05-24T06:18:23.885Z,14.86
2023-05-24T06:23:17.187Z,14.58
2023-05-24T06:28:10.672Z,14.83
2023-05-24T06:33:04.185Z,14.83
2023-05-24T06:38:00.001Z,14.78
2023-05-24T06:42:53.376Z,14.82
2023-05-24T06:47:46.997Z,15.19
2023-05-24T06:52:40.460Z,15.30
2023-05-24T06:57:35.168Z,14.90
2023-05-24T07:02:29.035Z,14.73
2023-05-24T07:07:22.515Z,14.68
2023-05-24T07:12:15.921Z,14.66
2023-05-24T07:17:10.709Z,14.68
2023-05-24T07:22:04.149Z,14.66
2023-05-24T07:26:57.902Z,14.88
2023-05-24T07:31:51.519Z,14.72
2023-05-24T07:36:48.491Z,14.93
2023-05-24T07:41:42.336Z,14.85
2023-05-24T07:46:35.742Z,14.81
2023-05-24T07:51:29.100Z,14.87
2023-05-24T07:56:23.885Z,14.78
2023-05-24T08:01:18.540Z,14.70
2023-05-24T08:06:12.903Z,15.00
2023-05-24T08:11:06.382Z,14.98
2023-05-24T08:16:01.186Z,14.80
2023-05-24T08:20:54.553Z,14.90
2023-05-24T08:25:47.860Z,14.75
2023-05-24T08:30:41.235Z,14.84
2023-05-24T08:35:36.972Z,14.48
2023-05-24T08:40:30.330Z,14.43
2023-05-24T08:45:24.383Z,14.29
2023-05-24T08:50:18.028Z,14.54
2023-05-24T08:55:13.304Z,14.60
2023-05-24T09:00:09.611Z,14.58
2023-05-24T09:05:04.633Z,14.73
2023-05-24T09:10:02.300Z,14.91
2023-05-24T09:14:58.504Z,14.63
2023-05-24T09:19:53.984Z,14.67
2023-05-24T09:24:49.452Z,14.82
2023-05-24T09:29:46.283Z,14.68
2023-05-24T09:34:42.578Z,14.99
2023-05-24T09:39:36.726Z,15.04
2023-05-24T09:44:30.122Z,15.06
2023-05-24T09:49:23.428Z,15.19
2023-05-24T09:54:18.755Z,15.41
2023-05-24T09:59:15.961Z,14.89
2023-05-24T10:04:10.385Z,15.03
2023-05-24T10:09:07.044Z,14.86
2023-05-24T10:14:05.464Z,15.10
2023-05-24T10:18:58.866Z,15.05
2023-05-24T10:24:00.179Z,15.15
2023-05-24T10:29:05.720Z,15.17
2023-05-24T10:34:07.568Z,15.09
2023-05-24T10:39:03.732Z,15.21
2023-05-24T10:44:09.182Z,15.38
2023-05-24T10:49:06.832Z,15.40
2023-05-24T10:54:12.790Z,15.30
2023-05-24T10:59:06.789Z,15.11
2023-05-24T11:04:11.317Z,15.01
2023-05-24T11:09:06.204Z,15.07
2023-05-24T11:14:02.204Z,15.14
2023-05-24T11:18:57.095Z,15.42
2023-05-24T11:23:52.362Z,15.58
2023-05-24T11:28:47.793Z,15.69
2023-05-24T11:33:43.742Z,15.63
2023-05-24T11:38:37.545Z,15.61
2023-05-24T11:43:32.639Z,15.48
2023-05-24T11:48:26.246Z,15.74
2023-05-24T11:53:21.610Z,16.13
2023-05-24T11:58:24.213Z,16.14
2023-05-24T12:03:19.174Z,16.40
2023-05-24T12:08:15.549Z,16.59
2023-05-24T12:13:24.096Z,16.38
2023-05-24T12:18:22.216Z,16.50
2023-05-24T12:23:16.949Z,16.71
2023-05-24T12:28:10.350Z,16.71
2023-05-24T12:33:03.843Z,16.53
2023-05-24T12:38:05.059Z,16.53
2023-05-24T12:42:59.345Z,16.68
2023-05-24T12:47:53.523Z,16.86
2023-05-24T12:52:47.860Z,16.81
2023-05-24T12:57:43.157Z,17.16
2023-05-24T13:02:38.119Z,17.31
2023-05-24T13:07:33.494Z,17.46
2023-05-24T13:12:27.186Z,17.23
2023-05-24T13:17:22.130Z,16.97
2023-05-24T13:22:15.917Z,16.75
2023-05-24T13:27:09.777Z,16.56
2023-05-24T13:32:03.192Z,16.37
2023-05-24T13:37:00.088Z,16.14
2023-05-24T13:41:53.935Z,16.09
2023-05-24T13:46:48.327Z,16.02
2023-05-24T13:51:42.264Z,15.96
2023-05-24T13:56:37.270Z,16.05
2023-05-24T14:01:32.023Z,16.22
2023-05-24T14:06:25.810Z,16.27
2023-05-24T14:11:19.737Z,16.34
2023-05-24T14:16:14.790Z,16.25
2023-05-24T14:21:08.316Z,16.27
2023-05-24T14:26:02.801Z,16.46
2023-05-24T14:30:56.151Z,16.48
2023-05-24T14:35:51.988Z,16.46
2023-05-24T14:40:47.546Z,16.40
2023-05-24T14:45:42.916Z,16.26
2023-05-24T14:50:36.785Z,16.16
2023-05-24T14:55:31.420Z,16.02
2023-05-24T15:00:26.923Z,15.96
2023-05-24T15:05:21.915Z,16.01
2023-05-24T15:10:15.283Z,15.92
2023-05-24T15:15:12.553Z,15.88
2023-05-24T15:20:07.364Z,15.77
2023-05-24T15:25:01.032Z,15.71
2023-05-24T15:29:58.984Z,15.61
2023-05-24T15:34:53.782Z,15.52
2023-05-24T15:39:47.200Z,15.48
2023-05-24T15:44:40.541Z,15.57
2023-05-24T15:49:33.862Z,15.39
2023-05-24T15:54:28.601Z,15.41
2023-05-24T15:59:21.879Z,15.50
2023-05-24T16:04:15.702Z,15.48
2023-05-24T16:09:09.437Z,15.34
2023-05-24T16:14:05.342Z,15.12
2023-05-24T16:18:58.653Z,15.00
2023-05-24T16:23:52.006Z,14.99
2023-05-24T16:28:45.538Z,15.11
2023-05-24T16:33:41.178Z,15.21
2023-05-24T16:38:34.706Z,15.18
2023-05-24T16:43:28.016Z,15.18
2023-05-24T16:48:28.234Z,15.24
2023-05-24T16:53:24.700Z,15.34
2023-05-24T16:58:18.324Z,15.23
2023-05-24T17:03:11.792Z,15.35
2023-05-24T17:08:05.339Z,15.15
2023-05-24T17:13:00.242Z,15.05
2023-05-24T17:17:53.694Z,15.03
2023-05-24T17:22:47.342Z,15.14
2023-05-24T17:27:40.723Z,14.97
2023-05-24T17:32:35.467Z,14.83
2023-05-24T17:37:28.786Z,14.94
2023-05-24T17:42:22.064Z,14.91
2023-05-24T17:47:17.446Z,14.94
2023-05-24T17:52:14.496Z,14.89
2023-05-24T17:57:07.939Z,14.86
2023-05-24T18:02:01.333Z,14.97
2023-05-24T18:06:55.375Z,14.86
2023-05-24T18:11:51.623Z,14.85
2023-05-24T18:16:46.100Z,14.77
2023-05-24T18:21:40.226Z,14.78
2023-05-24T18:26:33.623Z,14.80
2023-05-24T18:31:28.368Z,14.82
2023-05-24T18:36:21.930Z,14.65
2023-05-24T18:41:16.622Z,14.79
2023-05-24T18:46:13.286Z,14.75
2023-05-24T18:51:08.652Z,14.71
2023-05-24T18:56:02.083Z,14.85
2023-05-24T19:00:55.741Z,14.78
2023-05-24T19:05:49.233Z,14.79
2023-05-24T19:10:44.303Z,14.56
2023-05-24T19:15:37.897Z,14.34
2023-05-24T19:20:31.289Z,14.22
2023-05-24T19:25:24.666Z,13.93
2023-05-24T19:30:19.493Z,13.83
2023-05-24T19:35:13.432Z,13.75
2023-05-24T19:40:09.288Z,13.63
2023-05-24T19:45:02.787Z,13.92
2023-05-24T19:49:57.443Z,13.86
2023-05-24T19:54:50.922Z,13.91
2023-05-24T19:59:44.251Z,13.79
2023-05-24T20:04:41.544Z,13.70
2023-05-24T20:09:36.414Z,14.01
2023-05-24T20:14:31.712Z,13.94
2023-05-24T20:19:26.255Z,13.68
2023-05-24T20:24:19.647Z,13.78
2023-05-24T20:29:14.493Z,14.07
2023-05-24T20:34:07.940Z,14.03
2023-05-24T20:39:01.243Z,13.88
2023-05-24T20:43:54.860Z,13.89
2023-05-24T20:48:49.597Z,13.87
2023-05-24T20:53:42.934Z,13.86
2023-05-24T20:58:36.231Z,13.84
2023-05-24T21:03:30.086Z,13.72
2023-05-24T21:08:24.855Z,13.50
2023-05-24T21:13:20.422Z,13.52
2023-05-24T21:18:13.858Z,13.76
2023-05-24T21:23:07.140Z,13.81
2023-05-24T21:28:01.884Z,13.91
2023-05-24T21:32:55.245Z,14.11
2023-05-24T21:37:48.791Z,13.96
2023-05-24T21:42:42.168Z,13.84
2023-05-24T21:47:37.190Z,14.07
2023-05-24T21:52:30.764Z,13.89
2023-05-24T21:57:26.430Z,13.94
2023-05-24T22:02:20.186Z,13.75
2023-05-24T22:07:14.990Z,13.90
2023-05-24T22:12:08.535Z,13.83
2023-05-24T22:17:01.842Z,13.81
2023-05-24T22:21:56.320Z,13.89
2023-05-24T22:26:52.426Z,13.80
2023-05-24T22:31:46.084Z,13.76
2023-05-24T22:36:39.521Z,13.91
2023-05-24T22:41:32.949Z,13.99
2023-05-24T22:46:27.665Z,13.95
2023-05-24T22:51:21.483Z,13.92
2023-05-24T22:56:14.947Z,13.82
2023-05-24T23:01:08.297Z,13.99
2023-05-24T23:06:04.520Z,14.02
2023-05-24T23:10:58.238Z,14.15
2023-05-24T23:15:51.560Z,13.89
2023-05-24T23:20:45.305Z,13.97
2023-05-24T23:25:40.097Z,13.80
2023-05-24T23:30:33.437Z,13.78
2023-05-24T23:35:26.837Z,13.85
2023-05-24T23:40:20.153Z,13.74
2023-05-24T23:45:16.525Z,13.65
2023-05-24T23:50:11.171Z,13.70
2023-05-24T23:55:05.393Z,13.64
2023-05-24T23:59:58.701Z,13.56
